sensor_id;sensor_type;location;lat;lon;timestamp;P1;durP1;ratioP1;P2;durP2;ratioP2
47812;SDS011;34221;45.296;9.516;2023-02-22T00:00:05;65.63;;;43.65;;
47812;SDS011;34221;45.296;9.516;2023-02-22T00:00:32;61.20;;;40.35;;
47812;SDS011;34221;45.296;9.516;2023-02-22T00:00:57;67.68;;;45.13;;
47812;SDS011;34221;45.296;9.516;2023-02-22T00:01:16;64.20;;;42.83;;
47812;SDS011;34221;45.296;9.516;2023-02-22T00:01:49;64.78;;;44.00;;
47812;SDS011;34221;45.296;9.516;2023-02-22T00:02:04;64.32;;;43.35;;
47812;SDS011;34221;45.296;9.516;2023-02-22T00:02:26;64.45;;;42.13;;
47812;SDS011;34221;45.296;9.516;2023-02-22T00:02:42;61.55;;;43.08;;
47812;SDS011;34221;45.296;9.516;2023-02-22T00:02:58;63.22;;;43.92;;
47812;SDS011;34221;45.296;9.516;2023-02-22T00:03:37;65.55;;;44.20;;
47812;SDS011;34221;45.296;9.516;2023-02-22T00:03:53;62.03;;;43.03;;
47812;SDS011;34221;45.296;9.516;2023-02-22T00:04:09;64.18;;;43.88;;
47812;SDS011;34221;45.296;9.516;2023-02-22T00:04:24;65.45;;;43.60;;
47812;SDS011;34221;45.296;9.516;2023-02-22T00:04:41;65.60;;;43.65;;
47812;SDS011;34221;45.296;9.516;2023-02-22T00:04:56;66.70;;;43.47;;
47812;SDS011;34221;45.296;9.516;2023-02-22T00:05:11;69.72;;;44.55;;
47812;SDS011;34221;45.296;9.516;2023-02-22T00:05:29;71.80;;;45.60;;
47812;SDS011;34221;45.296;9.516;2023-02-22T00:05:45;71.68;;;44.75;;
47812;SDS011;34221;45.296;9.516;2023-02-22T00:06:01;66.30;;;43.55;;
47812;SDS011;34221;45.296;9.516;2023-02-22T00:06:19;59.42;;;41.25;;
47812;SDS011;34221;45.296;9.516;2023-02-22T00:06:38;63.78;;;42.78;;
47812;SDS011;34221;45.296;9.516;2023-02-22T00:06:53;69.32;;;43.88;;
47812;SDS011;34221;45.296;9.516;2023-02-22T00:07:08;67.22;;;44.72;;
47812;SDS011;34221;45.296;9.516;2023-02-22T00:07:23;62.83;;;44.20;;
47812;SDS011;34221;45.296;9.516;2023-02-22T00:07:37;66.35;;;44.17;;
47812;SDS011;34221;45.296;9.516;2023-02-22T00:07:53;71.53;;;44.90;;
47812;SDS011;34221;45.296;9.516;2023-02-22T00:08:12;73.88;;;45.80;;
47812;SDS011;34221;45.296;9.516;2023-02-22T00:08:31;65.45;;;44.55;;
47812;SDS011;34221;45.296;9.516;2023-02-22T00:08:49;69.25;;;46.22;;
47812;SDS011;34221;45.296;9.516;2023-02-22T00:09:05;66.85;;;44.58;;
47812;SDS011;34221;45.296;9.516;2023-02-22T00:09:22;66.05;;;44.40;;
47812;SDS011;34221;45.296;9.516;2023-02-22T00:09:37;68.18;;;44.75;;
47812;SDS011;34221;45.296;9.516;2023-02-22T00:09:52;66.00;;;44.75;;
47812;SDS011;34221;45.296;9.516;2023-02-22T00:10:07;66.97;;;44.47;;
47812;SDS011;34221;45.296;9.516;2023-02-22T00:10:26;63.95;;;43.03;;
47812;SDS011;34221;45.296;9.516;2023-02-22T00:10:41;62.08;;;42.70;;
47812;SDS011;34221;45.296;9.516;2023-02-22T00:10:58;64.95;;;44.25;;
47812;SDS011;34221;45.296;9.516;2023-02-22T00:11:19;65.78;;;44.47;;
47812;SDS011;34221;45.296;9.516;2023-02-22T00:11:34;64.22;;;44.92;;
47812;SDS011;34221;45.296;9.516;2023-02-22T00:11:49;65.35;;;45.25;;
47812;SDS011;34221;45.296;9.516;2023-02-22T00:12:04;64.57;;;43.58;;
47812;SDS011;34221;45.296;9.516;2023-02-22T00:12:19;66.25;;;43.83;;
47812;SDS011;34221;45.296;9.516;2023-02-22T00:12:34;71.38;;;44.50;;
47812;SDS011;34221;45.296;9.516;2023-02-22T00:12:50;66.85;;;43.83;;
47812;SDS011;34221;45.296;9.516;2023-02-22T00:13:08;67.63;;;45.25;;
47812;SDS011;34221;45.296;9.516;2023-02-22T00:13:27;68.22;;;44.85;;
47812;SDS011;34221;45.296;9.516;2023-02-22T00:13:43;64.55;;;43.70;;
47812;SDS011;34221;45.296;9.516;2023-02-22T00:13:58;67.43;;;45.47;;
47812;SDS011;34221;45.296;9.516;2023-02-22T00:14:13;69.88;;;45.67;;
47812;SDS011;34221;45.296;9.516;2023-02-22T00:14:28;67.00;;;44.47;;
47812;SDS011;34221;45.296;9.516;2023-02-22T00:14:43;65.00;;;44.15;;
47812;SDS011;34221;45.296;9.516;2023-02-22T00:14:58;65.97;;;45.00;;
47812;SDS011;34221;45.296;9.516;2023-02-22T00:15:13;67.07;;;45.97;;
47812;SDS011;34221;45.296;9.516;2023-02-22T00:15:30;66.70;;;46.10;;
47812;SDS011;34221;45.296;9.516;2023-02-22T00:15:47;67.97;;;45.20;;
47812;SDS011;34221;45.296;9.516;2023-02-22T00:16:02;66.13;;;42.95;;
47812;SDS011;34221;45.296;9.516;2023-02-22T00:16:19;64.72;;;43.40;;
47812;SDS011;34221;45.296;9.516;2023-02-22T00:16:36;67.25;;;44.92;;
47812;SDS011;34221;45.296;9.516;2023-02-22T00:16:52;65.18;;;44.10;;
47812;SDS011;34221;45.296;9.516;2023-02-22T00:17:12;63.92;;;44.67;;
47812;SDS011;34221;45.296;9.516;2023-02-22T00:17:29;62.55;;;43.88;;
47812;SDS011;34221;45.296;9.516;2023-02-22T00:17:44;63.55;;;44.28;;
47812;SDS011;34221;45.296;9.516;2023-02-22T00:18:00;68.45;;;45.50;;
47812;SDS011;34221;45.296;9.516;2023-02-22T00:18:16;69.05;;;45.60;;
47812;SDS011;34221;45.296;9.516;2023-02-22T00:18:32;68.97;;;45.78;;
47812;SDS011;34221;45.296;9.516;2023-02-22T00:18:48;71.85;;;45.42;;
47812;SDS011;34221;45.296;9.516;2023-02-22T00:19:03;67.95;;;44.40;;
47812;SDS011;34221;45.296;9.516;2023-02-22T00:19:19;62.60;;;43.45;;
47812;SDS011;34221;45.296;9.516;2023-02-22T00:19:34;63.67;;;43.38;;
47812;SDS011;34221;45.296;9.516;2023-02-22T00:19:49;67.72;;;44.75;;
47812;SDS011;34221;45.296;9.516;2023-02-22T00:20:03;66.95;;;44.72;;
47812;SDS011;34221;45.296;9.516;2023-02-22T00:20:20;64.82;;;44.25;;
47812;SDS011;34221;45.296;9.516;2023-02-22T00:20:36;67.22;;;44.10;;
47812;SDS011;34221;45.296;9.516;2023-02-22T00:20:52;71.13;;;44.80;;
47812;SDS011;34221;45.296;9.516;2023-02-22T00:21:08;72.03;;;46.45;;
47812;SDS011;34221;45.296;9.516;2023-02-22T00:21:26;68.68;;;44.50;;
47812;SDS011;34221;45.296;9.516;2023-02-22T00:21:41;64.23;;;43.50;;
47812;SDS011;34221;45.296;9.516;2023-02-22T00:21:58;65.82;;;45.50;;
47812;SDS011;34221;45.296;9.516;2023-02-22T00:22:13;70.03;;;45.67;;
47812;SDS011;34221;45.296;9.516;2023-02-22T00:22:32;72.00;;;45.55;;
47812;SDS011;34221;45.296;9.516;2023-02-22T00:22:48;69.28;;;46.08;;
47812;SDS011;34221;45.296;9.516;2023-02-22T00:23:08;68.22;;;46.05;;
47812;SDS011;34221;45.296;9.516;2023-02-22T00:23:29;68.50;;;44.83;;
47812;SDS011;34221;45.296;9.516;2023-02-22T00:23:45;67.10;;;43.50;;
47812;SDS011;34221;45.296;9.516;2023-02-22T00:24:01;71.30;;;45.35;;
47812;SDS011;34221;45.296;9.516;2023-02-22T00:24:35;67.93;;;46.50;;
47812;SDS011;34221;45.296;9.516;2023-02-22T00:24:50;67.93;;;45.10;;
47812;SDS011;34221;45.296;9.516;2023-02-22T00:25:06;74.45;;;45.45;;
47812;SDS011;34221;45.296;9.516;2023-02-22T00:25:22;73.07;;;45.42;;
47812;SDS011;34221;45.296;9.516;2023-02-22T00:25:38;63.22;;;44.80;;
47812;SDS011;34221;45.296;9.516;2023-02-22T00:25:53;64.82;;;46.25;;
47812;SDS011;34221;45.296;9.516;2023-02-22T00:26:10;70.55;;;47.15;;
47812;SDS011;34221;45.296;9.516;2023-02-22T00:26:26;74.40;;;46.65;;
47812;SDS011;34221;45.296;9.516;2023-02-22T00:26:41;72.53;;;46.33;;
47812;SDS011;34221;45.296;9.516;2023-02-22T00:26:56;71.30;;;45.20;;
47812;SDS011;34221;45.296;9.516;2023-02-22T00:27:11;67.82;;;44.58;;
47812;SDS011;34221;45.296;9.516;2023-02-22T00:27:26;65.00;;;45.15;;
47812;SDS011;34221;45.296;9.516;2023-02-22T00:27:40;68.57;;;45.22;;
47812;SDS011;34221;45.296;9.516;2023-02-22T00:27:56;68.22;;;45.25;;
47812;SDS011;34221;45.296;9.516;2023-02-22T00:28:11;67.30;;;45.40;;
47812;SDS011;34221;45.296;9.516;2023-02-22T00:28:28;68.53;;;45.88;;
47812;SDS011;34221;45.296;9.516;2023-02-22T00:28:45;66.45;;;45.03;;
47812;SDS011;34221;45.296;9.516;2023-02-22T00:29:02;66.43;;;45.80;;
47812;SDS011;34221;45.296;9.516;2023-02-22T00:29:16;67.25;;;46.65;;
47812;SDS011;34221;45.296;9.516;2023-02-22T00:29:32;71.45;;;46.80;;
47812;SDS011;34221;45.296;9.516;2023-02-22T00:29:47;73.95;;;46.08;;
47812;SDS011;34221;45.296;9.516;2023-02-22T00:30:03;72.68;;;47.30;;
47812;SDS011;34221;45.296;9.516;2023-02-22T00:30:21;71.47;;;47.42;;
47812;SDS011;34221;45.296;9.516;2023-02-22T00:30:41;66.90;;;45.00;;
47812;SDS011;34221;45.296;9.516;2023-02-22T00:30:57;67.20;;;46.15;;
47812;SDS011;34221;45.296;9.516;2023-02-22T00:31:13;71.63;;;46.80;;
47812;SDS011;34221;45.296;9.516;2023-02-22T00:31:28;72.57;;;45.90;;
47812;SDS011;34221;45.296;9.516;2023-02-22T00:31:43;70.05;;;46.03;;
47812;SDS011;34221;45.296;9.516;2023-02-22T00:31:59;71.20;;;45.40;;
47812;SDS011;34221;45.296;9.516;2023-02-22T00:32:14;72.80;;;45.33;;
47812;SDS011;34221;45.296;9.516;2023-02-22T00:32:29;67.57;;;45.05;;
47812;SDS011;34221;45.296;9.516;2023-02-22T00:32:44;69.03;;;45.80;;
47812;SDS011;34221;45.296;9.516;2023-02-22T00:33:01;68.25;;;45.95;;
47812;SDS011;34221;45.296;9.516;2023-02-22T00:33:17;67.38;;;45.28;;
47812;SDS011;34221;45.296;9.516;2023-02-22T00:33:32;71.50;;;47.83;;
47812;SDS011;34221;45.296;9.516;2023-02-22T00:33:47;71.45;;;47.67;;
47812;SDS011;34221;45.296;9.516;2023-02-22T00:34:02;76.32;;;47.38;;
47812;SDS011;34221;45.296;9.516;2023-02-22T00:34:17;77.22;;;47.72;;
47812;SDS011;34221;45.296;9.516;2023-02-22T00:34:32;70.80;;;46.65;;
47812;SDS011;34221;45.296;9.516;2023-02-22T00:34:49;70.57;;;46.85;;
47812;SDS011;34221;45.296;9.516;2023-02-22T00:35:06;73.65;;;47.30;;
47812;SDS011;34221;45.296;9.516;2023-02-22T00:35:23;70.43;;;46.53;;
47812;SDS011;34221;45.296;9.516;2023-02-22T00:35:41;65.38;;;45.08;;
47812;SDS011;34221;45.296;9.516;2023-02-22T00:36:01;69.28;;;46.33;;
47812;SDS011;34221;45.296;9.516;2023-02-22T00:36:16;70.65;;;46.38;;
47812;SDS011;34221;45.296;9.516;2023-02-22T00:36:31;71.05;;;46.70;;
47812;SDS011;34221;45.296;9.516;2023-02-22T00:36:46;72.90;;;46.45;;
47812;SDS011;34221;45.296;9.516;2023-02-22T00:37:22;74.50;;;47.10;;
47812;SDS011;34221;45.296;9.516;2023-02-22T00:37:37;73.65;;;46.67;;
47812;SDS011;34221;45.296;9.516;2023-02-22T00:37:56;72.78;;;46.63;;
47812;SDS011;34221;45.296;9.516;2023-02-22T00:38:14;69.10;;;46.75;;
47812;SDS011;34221;45.296;9.516;2023-02-22T00:38:32;68.57;;;46.15;;
47812;SDS011;34221;45.296;9.516;2023-02-22T00:38:49;72.70;;;46.65;;
47812;SDS011;34221;45.296;9.516;2023-02-22T00:39:04;76.30;;;47.65;;
47812;SDS011;34221;45.296;9.516;2023-02-22T00:39:20;72.53;;;47.17;;
47812;SDS011;34221;45.296;9.516;2023-02-22T00:39:35;69.75;;;46.17;;
47812;SDS011;34221;45.296;9.516;2023-02-22T00:39:50;69.97;;;46.90;;
47812;SDS011;34221;45.296;9.516;2023-02-22T00:40:07;73.15;;;47.83;;
47812;SDS011;34221;45.296;9.516;2023-02-22T00:40:31;75.22;;;48.58;;
47812;SDS011;34221;45.296;9.516;2023-02-22T00:40:48;77.93;;;48.70;;
47812;SDS011;34221;45.296;9.516;2023-02-22T00:41:03;74.82;;;47.67;;
47812;SDS011;34221;45.296;9.516;2023-02-22T00:41:19;74.38;;;48.42;;
47812;SDS011;34221;45.296;9.516;2023-02-22T00:41:37;72.22;;;47.55;;
47812;SDS011;34221;45.296;9.516;2023-02-22T00:42:13;70.53;;;46.63;;
47812;SDS011;34221;45.296;9.516;2023-02-22T00:42:29;74.15;;;48.08;;
47812;SDS011;34221;45.296;9.516;2023-02-22T00:42:44;79.57;;;49.75;;
47812;SDS011;34221;45.296;9.516;2023-02-22T00:43:02;77.97;;;48.03;;
47812;SDS011;34221;45.296;9.516;2023-02-22T00:43:18;78.32;;;48.35;;
47812;SDS011;34221;45.296;9.516;2023-02-22T00:43:35;76.55;;;48.35;;
47812;SDS011;34221;45.296;9.516;2023-02-22T00:43:50;74.45;;;46.20;;
47812;SDS011;34221;45.296;9.516;2023-02-22T00:44:07;76.60;;;48.07;;
47812;SDS011;34221;45.296;9.516;2023-02-22T00:44:21;76.50;;;49.23;;
47812;SDS011;34221;45.296;9.516;2023-02-22T00:44:37;73.70;;;48.05;;
47812;SDS011;34221;45.296;9.516;2023-02-22T00:44:52;72.50;;;46.80;;
47812;SDS011;34221;45.296;9.516;2023-02-22T00:45:07;79.00;;;47.67;;
47812;SDS011;34221;45.296;9.516;2023-02-22T00:45:24;76.60;;;49.15;;
47812;SDS011;34221;45.296;9.516;2023-02-22T00:45:40;70.72;;;46.72;;
47812;SDS011;34221;45.296;9.516;2023-02-22T00:45:55;72.38;;;47.00;;
47812;SDS011;34221;45.296;9.516;2023-02-22T00:46:12;76.43;;;49.00;;
47812;SDS011;34221;45.296;9.516;2023-02-22T00:46:28;78.05;;;50.30;;
47812;SDS011;34221;45.296;9.516;2023-02-22T00:46:43;76.80;;;49.17;;
47812;SDS011;34221;45.296;9.516;2023-02-22T00:46:58;77.30;;;48.17;;
47812;SDS011;34221;45.296;9.516;2023-02-22T00:47:12;74.70;;;48.07;;
47812;SDS011;34221;45.296;9.516;2023-02-22T00:47:29;73.10;;;48.97;;
47812;SDS011;34221;45.296;9.516;2023-02-22T00:47:44;72.57;;;49.47;;
47812;SDS011;34221;45.296;9.516;2023-02-22T00:47:59;75.75;;;49.40;;
47812;SDS011;34221;45.296;9.516;2023-02-22T00:48:15;77.35;;;49.30;;
47812;SDS011;34221;45.296;9.516;2023-02-22T00:48:30;75.07;;;50.15;;
47812;SDS011;34221;45.296;9.516;2023-02-22T00:48:45;72.97;;;49.33;;
47812;SDS011;34221;45.296;9.516;2023-02-22T00:49:00;75.20;;;48.15;;
47812;SDS011;34221;45.296;9.516;2023-02-22T00:49:16;76.80;;;47.65;;
47812;SDS011;34221;45.296;9.516;2023-02-22T00:49:32;78.47;;;49.50;;
47812;SDS011;34221;45.296;9.516;2023-02-22T00:49:48;77.55;;;50.05;;
47812;SDS011;34221;45.296;9.516;2023-02-22T00:50:03;73.75;;;49.63;;
47812;SDS011;34221;45.296;9.516;2023-02-22T00:50:19;73.30;;;49.88;;
47812;SDS011;34221;45.296;9.516;2023-02-22T00:50:35;76.38;;;50.45;;
47812;SDS011;34221;45.296;9.516;2023-02-22T00:50:51;79.28;;;51.72;;
47812;SDS011;34221;45.296;9.516;2023-02-22T00:51:08;76.65;;;50.65;;
47812;SDS011;34221;45.296;9.516;2023-02-22T00:51:26;73.75;;;48.58;;
47812;SDS011;34221;45.296;9.516;2023-02-22T00:51:42;76.80;;;49.10;;
47812;SDS011;34221;45.296;9.516;2023-02-22T00:51:57;78.38;;;50.42;;
47812;SDS011;34221;45.296;9.516;2023-02-22T00:52:13;76.47;;;50.13;;
47812;SDS011;34221;45.296;9.516;2023-02-22T00:52:27;78.70;;;50.50;;
47812;SDS011;34221;45.296;9.516;2023-02-22T00:52:43;83.30;;;50.17;;
47812;SDS011;34221;45.296;9.516;2023-02-22T00:53:01;81.40;;;50.10;;
47812;SDS011;34221;45.296;9.516;2023-02-22T00:53:18;81.95;;;51.53;;
47812;SDS011;34221;45.296;9.516;2023-02-22T00:53:33;78.13;;;51.30;;
47812;SDS011;34221;45.296;9.516;2023-02-22T00:53:48;75.90;;;50.65;;
47812;SDS011;34221;45.296;9.516;2023-02-22T00:54:03;77.47;;;51.05;;
47812;SDS011;34221;45.296;9.516;2023-02-22T00:54:18;75.53;;;51.58;;
47812;SDS011;34221;45.296;9.516;2023-02-22T00:54:34;74.95;;;50.65;;
47812;SDS011;34221;45.296;9.516;2023-02-22T00:54:49;76.13;;;50.35;;
47812;SDS011;34221;45.296;9.516;2023-02-22T00:55:06;77.97;;;50.83;;
47812;SDS011;34221;45.296;9.516;2023-02-22T00:55:27;78.05;;;50.45;;
47812;SDS011;34221;45.296;9.516;2023-02-22T00:55:48;82.18;;;52.40;;
47812;SDS011;34221;45.296;9.516;2023-02-22T00:56:03;81.03;;;51.70;;
47812;SDS011;34221;45.296;9.516;2023-02-22T00:56:20;75.68;;;50.88;;
47812;SDS011;34221;45.296;9.516;2023-02-22T00:56:36;78.68;;;51.40;;
47812;SDS011;34221;45.296;9.516;2023-02-22T00:56:51;81.88;;;52.50;;
47812;SDS011;34221;45.296;9.516;2023-02-22T00:57:05;81.28;;;52.97;;
47812;SDS011;34221;45.296;9.516;2023-02-22T00:57:21;79.80;;;51.63;;
47812;SDS011;34221;45.296;9.516;2023-02-22T00:57:37;78.55;;;52.83;;
47812;SDS011;34221;45.296;9.516;2023-02-22T00:57:53;78.95;;;53.60;;
47812;SDS011;34221;45.296;9.516;2023-02-22T00:58:09;79.40;;;52.25;;
47812;SDS011;34221;45.296;9.516;2023-02-22T00:58:24;80.43;;;51.22;;
47812;SDS011;34221;45.296;9.516;2023-02-22T00:58:40;82.03;;;52.40;;
47812;SDS011;34221;45.296;9.516;2023-02-22T00:58:54;83.75;;;53.47;;
47812;SDS011;34221;45.296;9.516;2023-02-22T00:59:10;81.07;;;51.80;;
47812;SDS011;34221;45.296;9.516;2023-02-22T00:59:25;83.13;;;52.33;;
47812;SDS011;34221;45.296;9.516;2023-02-22T00:59:40;86.32;;;53.90;;
47812;SDS011;34221;45.296;9.516;2023-02-22T00:59:55;83.95;;;53.30;;
47812;SDS011;34221;45.296;9.516;2023-02-22T01:00:14;80.40;;;52.05;;
47812;SDS011;34221;45.296;9.516;2023-02-22T01:00:38;82.30;;;53.33;;
47812;SDS011;34221;45.296;9.516;2023-02-22T01:00:54;85.43;;;52.60;;
47812;SDS011;34221;45.296;9.516;2023-02-22T01:01:09;84.70;;;52.25;;
47812;SDS011;34221;45.296;9.516;2023-02-22T01:01:26;82.18;;;53.03;;
47812;SDS011;34221;45.296;9.516;2023-02-22T01:01:42;84.00;;;54.20;;
47812;SDS011;34221;45.296;9.516;2023-02-22T01:01:57;87.53;;;54.28;;
47812;SDS011;34221;45.296;9.516;2023-02-22T01:02:12;86.90;;;53.92;;
47812;SDS011;34221;45.296;9.516;2023-02-22T01:02:28;87.88;;;54.00;;
47812;SDS011;34221;45.296;9.516;2023-02-22T01:02:43;89.82;;;54.40;;
47812;SDS011;34221;45.296;9.516;2023-02-22T01:03:01;85.40;;;53.47;;
47812;SDS011;34221;45.296;9.516;2023-02-22T01:03:19;84.30;;;53.28;;
47812;SDS011;34221;45.296;9.516;2023-02-22T01:03:34;82.82;;;53.90;;
47812;SDS011;34221;45.296;9.516;2023-02-22T01:03:51;80.85;;;54.05;;
47812;SDS011;34221;45.296;9.516;2023-02-22T01:04:07;84.30;;;53.42;;
47812;SDS011;34221;45.296;9.516;2023-02-22T01:04:22;83.90;;;54.70;;
47812;SDS011;34221;45.296;9.516;2023-02-22T01:04:38;78.45;;;53.92;;
47812;SDS011;34221;45.296;9.516;2023-02-22T01:04:53;80.55;;;53.90;;
47812;SDS011;34221;45.296;9.516;2023-02-22T01:05:09;82.65;;;54.63;;
47812;SDS011;34221;45.296;9.516;2023-02-22T01:05:27;81.65;;;55.15;;
47812;SDS011;34221;45.296;9.516;2023-02-22T01:05:43;82.47;;;54.65;;
47812;SDS011;34221;45.296;9.516;2023-02-22T01:05:59;87.05;;;56.15;;
47812;SDS011;34221;45.296;9.516;2023-02-22T01:06:13;88.90;;;56.63;;
47812;SDS011;34221;45.296;9.516;2023-02-22T01:06:28;87.03;;;56.47;;
47812;SDS011;34221;45.296;9.516;2023-02-22T01:06:46;85.95;;;55.88;;
47812;SDS011;34221;45.296;9.516;2023-02-22T01:07:01;88.60;;;53.05;;
47812;SDS011;34221;45.296;9.516;2023-02-22T01:07:16;92.10;;;53.22;;
47812;SDS011;34221;45.296;9.516;2023-02-22T01:07:31;85.95;;;54.60;;
47812;SDS011;34221;45.296;9.516;2023-02-22T01:07:46;85.28;;;54.70;;
47812;SDS011;34221;45.296;9.516;2023-02-22T01:08:03;87.78;;;53.33;;
47812;SDS011;34221;45.296;9.516;2023-02-22T01:08:21;85.78;;;51.65;;
47812;SDS011;34221;45.296;9.516;2023-02-22T01:08:38;84.07;;;54.22;;
47812;SDS011;34221;45.296;9.516;2023-02-22T01:09:00;86.57;;;54.72;;
47812;SDS011;34221;45.296;9.516;2023-02-22T01:09:15;86.30;;;53.67;;
47812;SDS011;34221;45.296;9.516;2023-02-22T01:09:30;86.28;;;54.50;;
47812;SDS011;34221;45.296;9.516;2023-02-22T01:09:46;83.43;;;53.80;;
47812;SDS011;34221;45.296;9.516;2023-02-22T01:10:01;83.85;;;55.58;;
47812;SDS011;34221;45.296;9.516;2023-02-22T01:10:17;86.65;;;57.70;;
47812;SDS011;34221;45.296;9.516;2023-02-22T01:10:35;84.30;;;55.55;;
47812;SDS011;34221;45.296;9.516;2023-02-22T01:10:52;83.82;;;55.60;;
47812;SDS011;34221;45.296;9.516;2023-02-22T01:11:07;85.13;;;57.05;;
47812;SDS011;34221;45.296;9.516;2023-02-22T01:11:23;88.97;;;56.92;;
47812;SDS011;34221;45.296;9.516;2023-02-22T01:11:38;85.43;;;55.10;;
47812;SDS011;34221;45.296;9.516;2023-02-22T01:11:54;84.80;;;55.50;;
47812;SDS011;34221;45.296;9.516;2023-02-22T01:12:11;89.78;;;55.85;;
47812;SDS011;34221;45.296;9.516;2023-02-22T01:12:28;92.38;;;58.05;;
47812;SDS011;34221;45.296;9.516;2023-02-22T01:12:44;90.85;;;58.17;;
47812;SDS011;34221;45.296;9.516;2023-02-22T01:13:03;88.95;;;55.88;;
47812;SDS011;34221;45.296;9.516;2023-02-22T01:13:21;92.10;;;56.08;;
47812;SDS011;34221;45.296;9.516;2023-02-22T01:13:36;90.88;;;55.70;;
47812;SDS011;34221;45.296;9.516;2023-02-22T01:13:51;96.13;;;56.55;;
47812;SDS011;34221;45.296;9.516;2023-02-22T01:14:08;97.95;;;58.00;;
47812;SDS011;34221;45.296;9.516;2023-02-22T01:14:25;88.07;;;57.78;;
47812;SDS011;34221;45.296;9.516;2023-02-22T01:14:41;91.70;;;58.22;;
47812;SDS011;34221;45.296;9.516;2023-02-22T01:14:56;90.05;;;57.00;;
47812;SDS011;34221;45.296;9.516;2023-02-22T01:15:12;88.25;;;56.88;;
47812;SDS011;34221;45.296;9.516;2023-02-22T01:15:28;90.57;;;58.47;;
47812;SDS011;34221;45.296;9.516;2023-02-22T01:15:44;95.57;;;57.85;;
47812;SDS011;34221;45.296;9.516;2023-02-22T01:15:59;94.97;;;57.13;;
47812;SDS011;34221;45.296;9.516;2023-02-22T01:16:14;89.45;;;57.33;;
47812;SDS011;34221;45.296;9.516;2023-02-22T01:16:29;88.32;;;57.40;;
47812;SDS011;34221;45.296;9.516;2023-02-22T01:16:44;89.55;;;57.22;;
47812;SDS011;34221;45.296;9.516;2023-02-22T01:16:59;90.18;;;56.83;;
47812;SDS011;34221;45.296;9.516;2023-02-22T01:17:14;89.97;;;56.97;;
47812;SDS011;34221;45.296;9.516;2023-02-22T01:17:29;88.75;;;56.88;;
47812;SDS011;34221;45.296;9.516;2023-02-22T01:17:44;90.50;;;57.05;;
47812;SDS011;34221;45.296;9.516;2023-02-22T01:17:59;97.13;;;59.45;;
47812;SDS011;34221;45.296;9.516;2023-02-22T01:18:14;93.07;;;58.78;;
47812;SDS011;34221;45.296;9.516;2023-02-22T01:18:30;88.55;;;57.83;;
47812;SDS011;34221;45.296;9.516;2023-02-22T01:18:45;88.70;;;58.22;;
47812;SDS011;34221;45.296;9.516;2023-02-22T01:19:00;90.10;;;58.40;;
47812;SDS011;34221;45.296;9.516;2023-02-22T01:19:15;90.20;;;59.33;;
47812;SDS011;34221;45.296;9.516;2023-02-22T01:19:30;88.75;;;58.17;;
47812;SDS011;34221;45.296;9.516;2023-02-22T01:19:45;92.63;;;56.65;;
47812;SDS011;34221;45.296;9.516;2023-02-22T01:20:00;93.05;;;56.83;;
47812;SDS011;34221;45.296;9.516;2023-02-22T01:20:15;88.05;;;57.00;;
47812;SDS011;34221;45.296;9.516;2023-02-22T01:20:32;90.50;;;58.47;;
47812;SDS011;34221;45.296;9.516;2023-02-22T01:20:47;93.68;;;59.38;;
47812;SDS011;34221;45.296;9.516;2023-02-22T01:21:03;87.85;;;57.45;;
47812;SDS011;34221;45.296;9.516;2023-02-22T01:21:19;90.00;;;57.88;;
47812;SDS011;34221;45.296;9.516;2023-02-22T01:21:34;95.47;;;58.87;;
47812;SDS011;34221;45.296;9.516;2023-02-22T01:21:49;94.90;;;59.57;;
47812;SDS011;34221;45.296;9.516;2023-02-22T01:22:04;97.10;;;59.45;;
47812;SDS011;34221;45.296;9.516;2023-02-22T01:22:19;95.50;;;58.72;;
47812;SDS011;34221;45.296;9.516;2023-02-22T01:22:35;96.93;;;60.03;;
47812;SDS011;34221;45.296;9.516;2023-02-22T01:22:51;97.57;;;59.92;;
47812;SDS011;34221;45.296;9.516;2023-02-22T01:23:10;90.03;;;58.13;;
47812;SDS011;34221;45.296;9.516;2023-02-22T01:23:25;91.32;;;58.95;;
47812;SDS011;34221;45.296;9.516;2023-02-22T01:23:43;92.85;;;59.38;;
47812;SDS011;34221;45.296;9.516;2023-02-22T01:23:59;96.40;;;60.03;;
47812;SDS011;34221;45.296;9.516;2023-02-22T01:24:14;99.22;;;61.67;;
47812;SDS011;34221;45.296;9.516;2023-02-22T01:24:31;90.90;;;60.17;;
47812;SDS011;34221;45.296;9.516;2023-02-22T01:24:46;87.25;;;58.78;;
47812;SDS011;34221;45.296;9.516;2023-02-22T01:25:03;92.97;;;57.47;;
47812;SDS011;34221;45.296;9.516;2023-02-22T01:25:21;95.97;;;58.85;;
47812;SDS011;34221;45.296;9.516;2023-02-22T01:25:42;97.50;;;59.47;;
47812;SDS011;34221;45.296;9.516;2023-02-22T01:25:57;96.68;;;59.92;;
47812;SDS011;34221;45.296;9.516;2023-02-22T01:26:12;92.53;;;59.45;;
47812;SDS011;34221;45.296;9.516;2023-02-22T01:26:27;96.10;;;59.90;;
47812;SDS011;34221;45.296;9.516;2023-02-22T01:26:42;98.53;;;61.53;;
47812;SDS011;34221;45.296;9.516;2023-02-22T01:27:03;95.32;;;60.45;;
47812;SDS011;34221;45.296;9.516;2023-02-22T01:27:19;94.82;;;60.92;;
47812;SDS011;34221;45.296;9.516;2023-02-22T01:27:34;95.72;;;61.80;;
47812;SDS011;34221;45.296;9.516;2023-02-22T01:27:52;95.20;;;60.72;;
47812;SDS011;34221;45.296;9.516;2023-02-22T01:28:07;93.53;;;59.58;;
47812;SDS011;34221;45.296;9.516;2023-02-22T01:28:22;94.93;;;59.50;;
47812;SDS011;34221;45.296;9.516;2023-02-22T01:28:37;92.68;;;59.17;;
47812;SDS011;34221;45.296;9.516;2023-02-22T01:28:53;93.25;;;58.72;;
47812;SDS011;34221;45.296;9.516;2023-02-22T01:29:11;94.47;;;59.72;;
47812;SDS011;34221;45.296;9.516;2023-02-22T01:29:30;98.43;;;61.28;;
47812;SDS011;34221;45.296;9.516;2023-02-22T01:29:47;95.35;;;61.60;;
47812;SDS011;34221;45.296;9.516;2023-02-22T01:30:03;97.55;;;62.55;;
47812;SDS011;34221;45.296;9.516;2023-02-22T01:30:23;102.38;;;64.25;;
47812;SDS011;34221;45.296;9.516;2023-02-22T01:30:42;99.03;;;63.47;;
47812;SDS011;34221;45.296;9.516;2023-02-22T01:30:57;94.03;;;62.22;;
47812;SDS011;34221;45.296;9.516;2023-02-22T01:31:12;98.68;;;63.58;;
47812;SDS011;34221;45.296;9.516;2023-02-22T01:31:27;100.18;;;63.67;;
47812;SDS011;34221;45.296;9.516;2023-02-22T01:31:42;101.47;;;64.18;;
47812;SDS011;34221;45.296;9.516;2023-02-22T01:32:04;101.95;;;64.57;;
47812;SDS011;34221;45.296;9.516;2023-02-22T01:32:19;103.47;;;64.35;;
47812;SDS011;34221;45.296;9.516;2023-02-22T01:32:35;99.00;;;62.20;;
47812;SDS011;34221;45.296;9.516;2023-02-22T01:32:51;93.22;;;61.72;;
47812;SDS011;34221;45.296;9.516;2023-02-22T01:33:06;95.13;;;63.05;;
47812;SDS011;34221;45.296;9.516;2023-02-22T01:33:21;102.78;;;62.75;;
47812;SDS011;34221;45.296;9.516;2023-02-22T01:33:37;101.60;;;62.03;;
47812;SDS011;34221;45.296;9.516;2023-02-22T01:33:52;99.30;;;62.60;;
47812;SDS011;34221;45.296;9.516;2023-02-22T01:34:07;102.95;;;62.03;;
47812;SDS011;34221;45.296;9.516;2023-02-22T01:34:23;98.63;;;60.95;;
47812;SDS011;34221;45.296;9.516;2023-02-22T01:34:39;100.80;;;63.40;;
47812;SDS011;34221;45.296;9.516;2023-02-22T01:34:54;102.95;;;64.20;;
47812;SDS011;34221;45.296;9.516;2023-02-22T01:35:12;105.75;;;63.75;;
47812;SDS011;34221;45.296;9.516;2023-02-22T01:35:37;97.70;;;61.88;;
47812;SDS011;34221;45.296;9.516;2023-02-22T01:35:55;103.15;;;63.10;;
47812;SDS011;34221;45.296;9.516;2023-02-22T01:36:10;101.07;;;64.17;;
47812;SDS011;34221;45.296;9.516;2023-02-22T01:36:25;101.03;;;63.63;;